EDT,Max TemperatureF,Mean TemperatureF,Min TemperatureF,Max Dew PointF,MeanDew PointF,Min DewpointF,Max Humidity, Mean Humidity, Min Humidity, Max Sea Level PressureIn, Mean Sea Level PressureIn, Min Sea Level PressureIn, Max VisibilityMiles, Mean VisibilityMiles, Min VisibilityMiles, Max Wind SpeedMPH, Mean Wind SpeedMPH, Max Gust SpeedMPH,PrecipitationIn, CloudCover, Events, WindDirDegrees
2011-9-1,75,68,61,61,58,52,88,75,44,30.24,30.19,30.15,10,10,10,12,4,,0.00,3,,48
2011-9-2,70,63,57,61,58,53,94,78,64,30.16,30.12,30.06,10,10,9,14,6,18,0.00,4,,30
2011-9-3,77,65,55,63,60,52,90,74,59,30.05,29.98,29.92,10,10,8,14,5,26,0.01,2,,224
2011-9-4,80,75,70,67,62,59,87,70,54,29.97,29.94,29.90,10,10,10,15,9,26,0.00,3,,219
2011-9-5,82,75,69,72,70,66,94,84,72,29.92,29.89,29.88,10,9,2,15,9,24,0.00,6,,210
2011-9-6,73,66,60,70,62,57,94,89,87,30.21,30.05,29.84,10,8,2,13,8,20,0.25,8,Rain,42
2011-9-7,66,64,62,64,61,58,100,92,84,30.22,30.17,30.10,10,3,0,12,8,21,0.25,8,Fog-Rain,75
2011-9-8,71,66,62,66,62,59,100,91,78,30.14,30.04,29.91,10,6,0,12,5,23,0.22,7,Fog-Rain-Thunderstorm,33
2011-9-9,73,68,62,63,60,54,96,83,50,29.91,29.79,29.73,10,7,0,10,7,21,0.01,4,Fog,350
2011-9-10,73,66,60,60,55,50,93,69,57,30.09,29.95,29.84,10,10,10,15,5,22,0.00,0,,42
2011-9-11,69,62,57,57,52,48,87,67,49,30.19,30.12,30.06,10,10,10,10,5,,0.00,0,,106
2011-9-12,78,70,63,68,65,59,94,84,69,30.04,30.00,29.96,10,9,6,12,5,18,0.00,6,,221
2011-9-13,78,72,66,68,65,64,94,82,73,29.99,29.95,29.92,10,9,6,13,7,23,0.01,3,,223
2011-9-14,80,74,69,70,68,65,94,85,71,30.00,29.97,29.93,10,6,2,13,8,21,0.00,3,,222
2011-9-15,77,67,57,70,65,46,94,86,67,30.00,29.90,29.80,10,6,0,15,5,36,0.00,7,Fog-Rain,233
2011-9-16,63,56,50,46,42,39,86,60,43,30.34,30.17,29.93,10,10,8,14,9,26,0.01,1,Rain,320
2011-9-17,63,57,51,45,42,40,80,57,45,30.48,30.44,30.35,10,10,10,9,4,16,0.00,0,,45
2011-9-18,64,62,59,52,47,43,72,59,50,30.47,30.42,30.35,10,10,10,15,9,23,0.00,6,,65
2011-9-19,66,58,51,54,51,48,89,70,58,30.32,30.26,30.18,10,10,10,14,7,20,0.00,3,,40
2011-9-20,71,60,51,63,57,48,94,81,68,30.18,30.15,30.11,10,9,4,12,4,24,0.01,5,Rain,221
2011-9-21,77,69,61,64,62,59,94,79,64,30.28,30.25,30.17,10,9,4,8,3,,0.00,4,Rain,186
2011-9-22,73,69,66,67,65,62,94,90,81,30.25,30.16,30.12,10,6,0,13,6,21,0.04,8,Fog-Rain,180
2011-9-23,73,68,66,70,67,64,100,92,83,30.19,30.13,30.07,10,2,0,8,4,,0.06,8,Fog-Rain,186
2011-9-24,75,70,68,71,68,66,96,92,87,30.10,30.05,30.00,10,4,0,13,6,20,0.57,8,Fog-Rain,217
2011-9-25,81,74,68,70,67,65,96,89,74,30.09,30.06,30.03,10,6,0,7,3,,0.00,4,Fog,204
2011-9-26,82,73,66,70,66,62,100,88,66,30.03,30.00,29.96,10,6,0,6,1,,0.01,3,Fog,229
2011-9-27,77,70,62,67,63,57,100,86,52,30.09,30.00,29.97,10,5,0,6,1,,0.01,2,Fog,114
2011-9-28,70,67,64,63,60,57,87,80,73,30.12,30.07,29.99,10,10,10,15,8,21,0.00,3,,96
2011-9-29,73,68,64,68,65,60,97,91,83,29.97,29.75,29.66,10,7,0,13,9,32,0.78,7,Fog-Rain-Thunderstorm,181
2011-9-30,72,67,62,63,60,54,93,79,64,29.80,29.75,29.70,10,10,6,9,6,18,0.01,0,,204